sensor_id;sensor_type;location;lat;lon;timestamp;P1;durP1;ratioP1;P2;durP2;ratioP2
15681;SDS011;7941;50.966;6.978;2023-02-15T21:03:22;18.40;;;16.20;;
15681;SDS011;7941;50.966;6.978;2023-02-15T21:05:50;18.80;;;16.97;;
15681;SDS011;7941;50.966;6.978;2023-02-15T21:08:20;19.70;;;17.70;;
15681;SDS011;7941;50.966;6.978;2023-02-15T21:10:48;21.00;;;19.00;;
15681;SDS011;7941;50.966;6.978;2023-02-15T21:15:45;21.53;;;19.47;;
15681;SDS011;7941;50.966;6.978;2023-02-15T21:18:14;24.57;;;20.70;;
15681;SDS011;7941;50.966;6.978;2023-02-15T21:20:43;23.20;;;20.70;;
15681;SDS011;7941;50.966;6.978;2023-02-15T21:23:10;21.63;;;19.17;;
15681;SDS011;7941;50.966;6.978;2023-02-15T21:25:38;22.63;;;20.43;;
15681;SDS011;7941;50.966;6.978;2023-02-15T21:28:05;22.90;;;20.57;;
15681;SDS011;7941;50.966;6.978;2023-02-15T21:30:34;23.83;;;21.27;;
15681;SDS011;7941;50.966;6.978;2023-02-15T21:33:01;25.70;;;21.77;;
15681;SDS011;7941;50.966;6.978;2023-02-15T21:35:27;25.17;;;21.57;;
15681;SDS011;7941;50.966;6.978;2023-02-15T21:37:54;24.77;;;20.57;;
15681;SDS011;7941;50.966;6.978;2023-02-15T21:40:28;23.60;;;21.07;;
15681;SDS011;7941;50.966;6.978;2023-02-15T21:42:54;24.30;;;21.63;;
15681;SDS011;7941;50.966;6.978;2023-02-15T21:45:39;24.80;;;21.77;;
15681;SDS011;7941;50.966;6.978;2023-02-15T21:48:41;28.73;;;23.50;;
15681;SDS011;7941;50.966;6.978;2023-02-15T21:51:07;24.67;;;22.00;;
15681;SDS011;7941;50.966;6.978;2023-02-15T21:53:52;26.10;;;23.30;;
15681;SDS011;7941;50.966;6.978;2023-02-15T21:56:20;29.87;;;24.30;;
15681;SDS011;7941;50.966;6.978;2023-02-15T21:58:48;26.77;;;23.93;;
15681;SDS011;7941;50.966;6.978;2023-02-15T22:01:25;26.67;;;23.33;;
15681;SDS011;7941;50.966;6.978;2023-02-15T22:03:52;27.60;;;23.87;;
15681;SDS011;7941;50.966;6.978;2023-02-15T22:06:19;29.83;;;25.63;;
15681;SDS011;7941;50.966;6.978;2023-02-15T22:08:46;29.33;;;25.20;;
15681;SDS011;7941;50.966;6.978;2023-02-15T22:11:13;26.57;;;23.70;;
15681;SDS011;7941;50.966;6.978;2023-02-15T22:13:41;27.77;;;24.60;;
15681;SDS011;7941;50.966;6.978;2023-02-15T22:16:20;27.50;;;24.57;;
15681;SDS011;7941;50.966;6.978;2023-02-15T22:18:47;29.57;;;26.30;;
15681;SDS011;7941;50.966;6.978;2023-02-15T22:21:14;29.53;;;26.03;;
15681;SDS011;7941;50.966;6.978;2023-02-15T22:23:44;28.33;;;25.23;;
15681;SDS011;7941;50.966;6.978;2023-02-15T22:26:14;32.43;;;27.43;;
15681;SDS011;7941;50.966;6.978;2023-02-15T22:28:42;31.23;;;26.50;;
15681;SDS011;7941;50.966;6.978;2023-02-15T22:31:12;31.13;;;26.37;;
15681;SDS011;7941;50.966;6.978;2023-02-15T22:33:38;34.57;;;26.90;;
15681;SDS011;7941;50.966;6.978;2023-02-15T22:36:05;33.33;;;27.20;;
15681;SDS011;7941;50.966;6.978;2023-02-15T22:38:32;31.43;;;27.23;;
15681;SDS011;7941;50.966;6.978;2023-02-15T22:41:00;34.37;;;27.60;;
15681;SDS011;7941;50.966;6.978;2023-02-15T22:43:37;33.93;;;27.57;;
15681;SDS011;7941;50.966;6.978;2023-02-15T22:46:05;32.57;;;27.53;;
15681;SDS011;7941;50.966;6.978;2023-02-15T22:48:32;33.27;;;26.83;;
15681;SDS011;7941;50.966;6.978;2023-02-15T22:50:58;30.67;;;27.07;;
15681;SDS011;7941;50.966;6.978;2023-02-15T22:53:25;33.37;;;27.37;;
15681;SDS011;7941;50.966;6.978;2023-02-15T22:55:52;41.97;;;35.20;;
15681;SDS011;7941;50.966;6.978;2023-02-15T22:58:20;38.00;;;31.40;;
15681;SDS011;7941;50.966;6.978;2023-02-15T23:00:47;32.83;;;27.67;;
15681;SDS011;7941;50.966;6.978;2023-02-15T23:03:19;31.03;;;27.53;;
15681;SDS011;7941;50.966;6.978;2023-02-15T23:05:46;32.07;;;26.83;;
15681;SDS011;7941;50.966;6.978;2023-02-15T23:08:13;32.93;;;27.70;;
15681;SDS011;7941;50.966;6.978;2023-02-15T23:10:40;31.73;;;28.20;;
15681;SDS011;7941;50.966;6.978;2023-02-15T23:13:15;31.13;;;27.43;;
15681;SDS011;7941;50.966;6.978;2023-02-15T23:15:49;30.77;;;27.47;;
15681;SDS011;7941;50.966;6.978;2023-02-15T23:20:46;33.83;;;27.63;;
15681;SDS011;7941;50.966;6.978;2023-02-15T23:23:13;33.60;;;28.17;;
15681;SDS011;7941;50.966;6.978;2023-02-15T23:25:40;34.63;;;28.07;;
15681;SDS011;7941;50.966;6.978;2023-02-15T23:28:50;35.07;;;28.27;;
15681;SDS011;7941;50.966;6.978;2023-02-15T23:30:57;32.17;;;27.33;;
15681;SDS011;7941;50.966;6.978;2023-02-15T23:33:25;34.87;;;28.50;;
15681;SDS011;7941;50.966;6.978;2023-02-15T23:35:52;36.00;;;29.17;;
15681;SDS011;7941;50.966;6.978;2023-02-15T23:38:22;34.60;;;28.93;;
15681;SDS011;7941;50.966;6.978;2023-02-15T23:40:50;31.77;;;28.30;;
15681;SDS011;7941;50.966;6.978;2023-02-15T23:43:36;35.70;;;28.60;;
15681;SDS011;7941;50.966;6.978;2023-02-15T23:46:03;34.87;;;28.60;;
15681;SDS011;7941;50.966;6.978;2023-02-15T23:48:33;35.37;;;27.43;;
15681;SDS011;7941;50.966;6.978;2023-02-15T23:51:00;35.80;;;28.80;;
15681;SDS011;7941;50.966;6.978;2023-02-15T23:53:27;32.27;;;28.40;;
15681;SDS011;7941;50.966;6.978;2023-02-15T23:55:53;35.20;;;28.87;;
15681;SDS011;7941;50.966;6.978;2023-02-15T23:58:20;34.07;;;29.60;;
